Latest Coastal Weather Observations for Maroochydore

IDQ60701

Issued at 2:55 am EST Thursday 24 April 2014 (issued every 10 minutes, with the page automatically refreshed every 10 minutes)

About coastal observations | Map of coastal stations | Coastal observations for QLD | Marine services | Other Formats
Station Details ID: 040861 Name: SUNSHINE COAST AIRPORT Lat: -26.60 Lon: 153.09 Height: 3.3 m
Data from the previous 72 hours. | See also: Recent months at Maroochydore
Date/Time
EST
Temp

°C
Wind Pressure Rain
since 9am
mm
Weather Cloud Vis
km
Sea
Height
m
Swell
Dir
 
Speed
knots
Gust
knots
hPa Trend Height
m
Period
s
Dir
24/02:30am 17.2 WSW 5 6 1015.9 - 0.0 - - 10 - - - -
24/02:00am 17.6 SW 4 5 1015.8 - 0.0 - Partly cloudy 10 - - - -
24/01:30am 18.1 SW 4 5 1016.1 - 0.0 - Partly cloudy 10 - - - -
24/01:00am 18.5 SSW 3 4 1016.4 - 0.0 - Cloudy 10 - - - -
 
Date/Time
EST
Temp

°C
Wind Pressure Rain
since 9am
mm
Weather Cloud Vis
km
Sea
Height
m
Swell
Dir
 
Speed
knots
Gust
knots
hPa Trend Height
m
Period
s
Dir
23/11:30pm 18.9 SW 4 5 1017.1 - 0.0 - Cloudy 10 - - - -
23/11:00pm 19.0 WSW 4 5 1017.3 - 0.0 - Cloudy 10 - - - -
23/10:30pm 19.0 W 5 5 1017.5 - 0.0 - Cloudy 10 - - - -
23/10:00pm 19.2 WNW 3 4 1017.6 - 0.0 - Partly cloudy 10 - - - -
23/09:30pm 19.1 W 5 6 1017.8 - 0.0 - Cloudy 10 - - - -
23/09:00pm 19.3 W 5 5 1017.8 - 0.0 - Mostly cloudy 10 - - - -
23/08:30pm 19.7 W 3 4 1017.8 - 0.0 - Partly cloudy 10 - - - -
23/08:00pm 20.1 WSW 4 5 1017.8 - 0.0 - Partly cloudy 10 - - - -
23/07:30pm 20.4 SW 5 6 1017.6 - 0.0 - Cloudy 10 - - - -
23/07:00pm 20.5 W 6 8 1017.5 - 0.0 - Partly cloudy 10 - - - -
23/06:30pm 21.0 N 5 5 1017.4 - 0.0 - Cloudy 10 - - - -
23/06:00pm 21.2 N 7 10 1017.2 - 0.0 - Mostly cloudy 10 - - - -
23/05:30pm 21.3 N 9 13 1017.1 - 0.0 - Partly cloudy 10 - - - -
23/05:00pm 22.2 N 9 14 1016.7 - 0.0 - Partly cloudy 10 - - - -
23/04:30pm 22.3 N 10 15 1016.4 - 0.0 - Cloudy 10 - - - -
23/04:00pm 22.6 N 12 16 1016.1 - 0.0 - Partly cloudy 10 - - - -
23/03:30pm 24.5 ENE 7 8 1016.1 - 0.0 - Partly cloudy 10 - - - -
23/03:00pm 25.6 E 7 9 1015.9 - 0.0 - Partly cloudy 10 - - - -
23/02:30pm 25.5 E 8 11 1016.1 - 0.0 - - 10 - - - -
23/02:00pm 25.3 E 8 10 1016.2 - 0.0 - Partly cloudy 10 - - - -
23/01:30pm 24.9 ESE 7 9 1016.6 - 0.0 - - 10 - - - -
23/01:00pm 25.7 ESE 8 10 1016.7 - 0.0 - Partly cloudy 10 - - - -
23/12:30pm 25.9 ESE 8 9 1017.0 - 0.0 - Partly cloudy 10 - - - -
23/12:00pm 25.5 SE 8 9 1017.7 - 0.0 - Mostly clear 10 - - - -
23/11:30am 25.9 SE 9 10 1018.0 - 0.0 - Partly cloudy 10 - - - -
23/11:00am 25.2 ESE 7 9 1018.7 - 0.0 - Cloudy 10 - - - -
23/10:30am 24.8 SE 6 7 1019.0 - 0.0 - Partly cloudy 10 - - - -
23/10:00am 25.2 SSE 6 9 1019.1 - 0.0 - - 10 - - - -
23/09:30am 23.7 S 6 8 1019.4 - 0.0 - Cloudy 10 - - - -
23/09:00am 21.5 SW 3 5 1019.6 - 0.2 - Mostly cloudy 10 - - - -
23/08:30am 20.0 S 4 5 1019.7 - 0.2 - - 10 - - - -
23/08:00am 18.3 SW 1 5 1019.4 - 0.2 - - 10 - - - -
23/07:30am 17.4 SW 4 6 1019.2 - 0.2 - - 10 - - - -
23/07:00am 16.3 W 3 5 1019.6 - 0.2 - Partly cloudy 10 - - - -
23/06:30am 15.1 WSW 3 5 1019.1 - 0.2 - - 10 - - - -
23/06:00am 15.1 W 4 5 1018.7 - 0.2 - - 10 - - - -
23/05:30am 15.1 W 4 4 1018.6 - 0.2 - - 10 - - - -
23/05:00am 15.2 W 4 6 1018.5 - 0.2 - - 10 - - - -
23/04:30am 14.9 W 4 5 1018.5 - 0.2 - - 10 - - - -
23/04:00am 14.9 W 5 5 1018.1 - 0.2 - - 10 - - - -
23/03:30am 15.4 W 4 5 1018.1 - 0.2 - - 10 - - - -
23/03:00am 15.2 W 4 5 1018.1 - 0.2 - - 10 - - - -
23/02:30am 15.4 W 4 5 1018.4 - 0.2 - - 10 - - - -
23/02:00am 15.2 W 5 5 1018.4 - 0.2 - - 10 - - - -
23/01:30am 15.4 WSW 4 4 1018.5 - 0.2 - Partly cloudy 10 - - - -
23/01:00am 15.7 WSW 4 5 1018.8 - 0.2 - Partly cloudy 10 - - - -
23/12:30am 15.9 WSW 4 5 1019.0 - 0.2 - - 10 - - - -
23/12:00am 16.1 WSW 4 5 1019.2 - 0.2 - - 10 - - - -
 
Date/Time
EST
Temp

°C
Wind Pressure Rain
since 9am
mm
Weather Cloud Vis
km
Sea
Height
m
Swell
Dir
 
Speed
knots
Gust
knots
hPa Trend Height
m
Period
s
Dir
22/11:30pm 16.0 W 4 5 1019.3 - 0.2 - - 10 - - - -
22/11:00pm 16.3 WNW 5 5 1019.6 - 0.2 - - 10 - - - -
22/10:30pm 16.6 W 3 4 1019.5 - 0.2 - - 10 - - - -
22/10:00pm 16.8 W 3 4 1019.6 - 0.2 - - 10 - - - -
22/09:30pm 16.9 WSW 4 5 1019.7 - 0.2 - - 10 - - - -
22/09:00pm 17.2 WSW 3 4 1020.0 - 0.2 - Mostly clear 10 - - - -
22/08:30pm 17.6 WSW 4 5 1020.1 - 0.2 - - 10 - - - -
22/08:00pm 18.3 WSW 4 6 1020.0 - 0.2 - Partly cloudy 10 - - - -
22/07:30pm 19.1 NW 4 5 1019.8 - 0.2 - - 10 - - - -
22/07:00pm 21.4 NE 6 7 1019.5 - 0.2 - - 10 - - - -
22/06:30pm 22.0 NE 6 7 1019.3 - 0.2 - - 10 - - - -
22/06:00pm 22.1 NE 7 9 1019.2 - 0.2 - - 10 - - - -
22/05:30pm 22.5 ENE 7 9 1019.0 - 0.2 - - 10 - - - -
22/05:00pm 23.1 ENE 8 10 1018.8 - 0.2 - - 10 - - - -
22/04:30pm 24.0 ENE 8 10 1018.8 - 0.2 - - 10 - - - -
22/04:00pm 25.0 ENE 8 11 1018.6 - 0.2 - - 10 - - - -
22/03:30pm 25.0 ENE 8 10 1018.6 - 0.2 - - 10 - - - -
22/03:00pm 25.1 E 8 10 1018.7 - 0.2 - - 10 - - - -
22/02:30pm 25.3 E 9 11 1018.8 - 0.2 - - 10 - - - -
22/02:00pm 25.8 E 8 10 1018.9 - 0.2 - - 10 - - - -
22/01:30pm 25.6 E 8 10 1018.9 - 0.2 - - 10 - - - -
22/01:00pm 26.0 E 8 10 1019.4 - 0.2 - - 10 - - - -
22/12:30pm 25.7 E 7 10 1019.9 - 0.2 - - 10 - - - -
22/12:00pm 25.9 E 7 10 1020.2 - 0.2 - - 10 - - - -
22/11:30am 26.5 ESE 7 8 1020.8 - 0.2 - Partly cloudy 10 - - - -
22/11:00am 25.9 ESE 6 8 1021.1 - 0.2 - Partly cloudy 10 - - - -
22/10:30am 26.1 ENE 5 8 1021.5 - 0.2 - Partly cloudy 10 - - - -
22/10:00am 25.7 ESE 5 6 1021.3 - 0.2 - - 10 - - - -
22/09:30am 24.9 E 5 7 1021.5 - 0.0 - - 10 - - - -
22/09:00am 23.3 SW 4 4 1021.6 - 0.0 - - 10 - - - -
22/08:30am 20.9 SW 5 5 1021.8 - 0.0 - - 10 - - - -
22/08:00am 19.0 W 5 6 1022.0 - 0.0 - - 10 - - - -
22/07:30am 17.2 W 4 5 1021.6 - 0.0 - - 10 - - - -
22/07:00am 15.6 W 5 6 1021.3 - 0.0 - - 10 - - - -
22/06:30am 13.7 W 4 5 1021.1 - 0.0 - - 10 - - - -
22/06:00am 13.4 W 5 6 1021.0 - 0.0 - - 10 - - - -
22/05:30am 13.4 W 5 5 1020.7 - 0.0 - - 10 - - - -
22/05:00am 13.2 WSW 5 5 1020.6 - 0.0 - - 10 - - - -
22/04:30am 13.6 W 4 5 1020.3 - 0.0 - - 8 - - - -
22/04:00am 13.8 WSW 3 5 1020.1 - 0.0 - - 10 - - - -
22/03:30am 13.9 W 4 5 1019.9 - 0.0 - - 10 - - - -
22/03:00am 14.0 W 3 4 1020.0 - 0.0 - - 10 - - - -
22/02:30am 14.2 W 4 5 1020.0 - 0.0 - - 9 - - - -
22/02:00am 14.3 WSW 3 4 1020.2 - 0.0 - - 10 - - - -
22/01:55am 14.5 W 3 5 1020.3 - 0.0 - - 10 - - - -
22/01:31am 14.6 W 3 4 1020.4 - 0.0 - - 6 - - - -
22/01:30am 14.6 W 3 4 1020.4 - 0.0 - - 7 - - - -
22/01:00am 14.9 W 4 4 1020.4 - 0.0 - - 10 - - - -
22/12:30am 14.7 W 4 5 1020.6 - 0.0 - - 10 - - - -
22/12:00am 15.1 W 4 5 1020.8 - 0.0 - - 10 - - - -
 
Date/Time
EST
Temp

°C
Wind Pressure Rain
since 9am
mm
Weather Cloud Vis
km
Sea
Height
m
Swell
Dir
 
Speed
knots
Gust
knots
hPa Trend Height
m
Period
s
Dir
21/11:30pm 15.2 WSW 3 4 1020.9 - 0.0 - - 9 - - - -
21/11:00pm 15.8 WSW 4 5 1021.2 - 0.0 - - 10 - - - -
21/10:30pm 16.0 W 4 5 1021.2 - 0.0 - - 10 - - - -
21/10:00pm 16.3 W 3 5 1021.1 - 0.0 - - 10 - - - -
21/09:30pm 16.9 W 4 6 1021.1 - 0.0 - - 10 - - - -
21/09:00pm 16.8 W 4 5 1021.0 - 0.0 - - 10 - - - -
21/08:30pm 17.2 WNW 5 5 1020.9 - 0.0 - - 10 - - - -
21/08:00pm 18.0 NW 5 6 1020.8 - 0.0 - - 10 - - - -
21/07:30pm 19.3 N 5 7 1020.5 - 0.0 - - 10 - - - -
21/07:00pm 21.2 NNE 7 9 1020.2 - 0.0 - - 10 - - - -
21/06:30pm 22.5 NNE 9 11 1019.9 - 0.0 - - 10 - - - -
21/06:00pm 22.1 NNE 9 11 1019.5 - 0.0 - - 10 - - - -
21/05:30pm 22.8 NNE 10 12 1019.1 - 0.0 - - 10 - - - -
21/05:00pm 23.5 NNE 10 12 1019.0 - 0.0 - - 10 - - - -
21/04:30pm 24.5 NNE 10 13 1018.6 - 0.0 - - 10 - - - -
21/04:00pm 25.3 NNE 11 14 1018.6 - 0.0 - - 10 - - - -
21/03:30pm 25.7 NNE 11 14 1018.4 - 0.0 - - 10 - - - -
21/03:00pm 26.4 NE 11 14 1018.5 - 0.0 - - 10 - - - -
21/02:30pm 26.8 NE 11 13 1018.5 - 0.0 - - 10 - - - -
21/02:00pm 27.3 NE 11 14 1018.7 - 0.0 - - 10 - - - -
21/01:30pm 27.4 NE 11 14 1018.8 - 0.0 - - 10 - - - -
21/01:00pm 27.4 NE 11 14 1019.0 - 0.0 - - 10 - - - -
21/12:30pm 27.2 NE 10 13 1019.5 - 0.0 - - 10 - - - -
21/12:00pm 27.3 NE 9 12 1019.8 - 0.0 - - 10 - - - -
21/11:30am 27.5 NE 8 11 1020.1 - 0.0 - - 10 - - - -
21/11:00am 25.9 E 7 8 1020.5 - 0.0 - - 10 - - - -
21/10:30am 25.7 ENE 7 9 1020.9 - 0.0 - - 10 - - - -
21/10:00am 25.4 E 7 8 1021.2 - 0.0 - Partly cloudy 10 - - - -
21/09:30am 24.9 E 1 5 1021.2 - 0.0 - - 10 - - - -
21/09:00am 24.3 WNW 4 5 1021.1 - 0.2 - - 10 - - - -
21/08:30am 21.5 WSW 3 4 1021.1 - 0.2 - - 10 - - - -
21/08:00am 19.9 W 4 5 1021.0 - 0.2 - - 10 - - - -
21/07:30am 18.1 W 4 5 1020.8 - 0.2 - - 10 - - - -
21/07:00am 16.7 W 5 6 1020.5 - 0.2 - - 10 - - - -
21/06:30am 15.0 W 5 6 1020.2 - 0.2 - - 10 - - - -
21/06:00am 14.7 W 5 6 1019.7 - 0.2 - - 10 - - - -
21/05:30am 14.8 W 6 6 1019.3 - 0.2 - - 10 - - - -
21/05:00am 15.0 W 6 7 1019.2 - 0.2 - - 10 - - - -
21/04:30am 15.1 W 7 7 1018.8 - 0.2 - - 10 - - - -
21/04:00am 14.7 W 5 6 1018.5 - 0.2 - - 10 - - - -
21/03:30am 14.6 W 1 6 1018.3 - 0.2 - - 10 - - - -
21/03:00am 14.8 CALM 0 0 1018.2 - 0.2 - - 10 - - - -

Other Formats:

Comma delimited format used in spreadsheet applications
http://www.bom.gov.au/fwo/IDQ60701/IDQ60701.94569.axf

JavaScript Object Notation format (JSON) in row-major order
http://www.bom.gov.au/fwo/IDQ60701/IDQ60701.94569.json